createdAt,value
2019-03-01T00:03:40.314Z,76.94
2019-03-01T00:09:55.001Z,77.26
2019-03-01T00:16:16.212Z,77.10
2019-03-01T00:22:28.545Z,77.00
2019-03-01T00:28:49.568Z,75.80
2019-03-01T00:35:16.775Z,76.12
2019-03-01T00:41:48.486Z,75.87
2019-03-01T00:47:53.145Z,76.72
2019-03-01T00:53:57.874Z,76.95
2019-03-01T01:00:02.609Z,77.54
2019-03-01T01:06:07.202Z,78.05
2019-03-01T01:12:11.918Z,79.66
2019-03-01T01:18:16.508Z,81.69
2019-03-01T01:24:21.073Z,83.63
2019-03-01T01:30:25.632Z,84.72
2019-03-01T01:36:31.140Z,85.90
2019-03-01T01:42:35.706Z,86.67
2019-03-01T01:48:40.262Z,88.36
2019-03-01T01:54:44.862Z,89.66
2019-03-01T02:00:49.582Z,90.56
2019-03-01T02:06:54.199Z,91.74
2019-03-01T02:13:00.021Z,92.03
2019-03-01T02:19:04.652Z,91.91
2019-03-01T02:25:13.450Z,92.02
2019-03-01T02:31:18.922Z,91.14
2019-03-01T02:37:23.524Z,92.02
2019-03-01T02:43:28.363Z,92.23
2019-03-01T02:49:33.298Z,93.02
2019-03-01T02:55:37.856Z,93.02
2019-03-01T03:01:42.417Z,92.92
2019-03-01T03:07:54.564Z,92.69
2019-03-01T03:13:59.257Z,91.96
2019-03-01T03:20:04.593Z,92.06
2019-03-01T03:26:09.465Z,91.87
2019-03-01T03:32:14.188Z,91.22
2019-03-01T03:38:18.834Z,91.25
2019-03-01T03:44:23.473Z,91.17
2019-03-01T03:50:28.829Z,91.25
2019-03-01T03:56:34.019Z,90.44
2019-03-01T04:02:38.897Z,90.05
2019-03-01T04:08:43.600Z,89.90
2019-03-01T04:14:48.284Z,90.09
2019-03-01T04:20:52.946Z,89.72
2019-03-01T04:26:57.545Z,89.73
2019-03-01T04:33:02.364Z,89.15
2019-03-01T04:39:08.508Z,89.26
2019-03-01T04:45:16.088Z,89.13
2019-03-01T04:51:20.737Z,88.85
2019-03-01T04:57:25.442Z,88.19
2019-03-01T05:03:30.029Z,88.42
2019-03-01T05:09:34.606Z,87.85
2019-03-01T05:15:39.168Z,88.40
2019-03-01T05:21:43.751Z,89.25
2019-03-01T05:27:48.321Z,89.86
2019-03-01T05:33:52.879Z,90.24
2019-03-01T05:39:57.524Z,90.17
2019-03-01T05:46:02.128Z,90.30
2019-03-01T05:52:06.762Z,90.74
2019-03-01T05:58:32.976Z,91.07
2019-03-01T06:04:48.208Z,91.23
2019-03-01T06:10:57.838Z,91.49
2019-03-01T06:17:36.696Z,91.69
2019-03-01T06:23:57.687Z,92.49
2019-03-01T06:30:38.567Z,92.49
2019-03-01T06:37:03.006Z,92.33
2019-03-01T06:43:18.176Z,91.95
2019-03-01T06:49:24.493Z,92.14
2019-03-01T06:55:36.700Z,92.09
2019-03-01T07:01:42.006Z,92.03
2019-03-01T07:07:46.577Z,92.80
2019-03-01T07:13:51.145Z,92.30
2019-03-01T07:19:55.702Z,91.90
2019-03-01T07:26:00.745Z,92.16
2019-03-01T07:32:05.320Z,92.29
2019-03-01T07:38:09.872Z,92.77
2019-03-01T07:44:14.435Z,92.74
2019-03-01T07:50:19.091Z,92.66
2019-03-01T07:56:23.709Z,92.15
2019-03-01T08:02:29.826Z,91.88
2019-03-01T08:08:34.811Z,92.15
2019-03-01T08:14:40.681Z,91.01
2019-03-01T08:20:45.330Z,90.73
2019-03-01T08:26:49.945Z,91.01
2019-03-01T08:32:54.600Z,90.62
2019-03-01T08:39:00.816Z,90.73
2019-03-01T08:45:10.133Z,90.81
2019-03-01T08:51:14.821Z,90.28
2019-03-01T08:57:22.579Z,88.93
2019-03-01T09:03:36.271Z,89.04
2019-03-01T09:09:40.815Z,88.04
2019-03-01T09:15:46.175Z,88.10
2019-03-01T09:21:52.034Z,85.81
2019-03-01T09:27:57.635Z,85.70
2019-03-01T09:34:02.537Z,84.81
2019-03-01T09:40:07.907Z,86.10
2019-03-01T09:46:12.534Z,85.51
2019-03-01T09:52:17.112Z,83.20
2019-03-01T09:58:22.067Z,83.32
2019-03-01T10:04:26.640Z,82.01
2019-03-01T10:10:34.320Z,82.79
2019-03-01T10:16:38.963Z,83.73
2019-03-01T10:22:43.610Z,85.64
2019-03-01T10:28:48.245Z,86.37
2019-03-01T10:34:52.876Z,87.72
2019-03-01T10:40:57.576Z,87.69
2019-03-01T10:47:02.284Z,88.55
2019-03-01T10:53:07.046Z,89.22
2019-03-01T10:59:11.681Z,89.28
2019-03-01T11:05:16.393Z,88.25
2019-03-01T11:11:21.110Z,88.23
2019-03-01T11:17:25.680Z,87.58
2019-03-01T11:23:30.407Z,87.74
2019-03-01T11:29:35.121Z,86.32
2019-03-01T11:35:39.743Z,86.94
2019-03-01T11:41:46.867Z,88.19
2019-03-01T11:47:51.526Z,86.50
2019-03-01T11:53:56.119Z,86.77
2019-03-01T12:00:01.059Z,87.14
2019-03-01T12:06:05.695Z,87.78
2019-03-01T12:12:10.264Z,90.50
2019-03-01T12:18:14.818Z,93.67
2019-03-01T12:24:19.389Z,94.42
2019-03-01T12:30:28.203Z,94.30
2019-03-01T12:36:32.904Z,95.21
2019-03-01T12:42:37.489Z,94.25
2019-03-01T12:48:42.061Z,92.66
2019-03-01T12:54:46.703Z,91.56
2019-03-01T13:00:51.282Z,89.81
2019-03-01T13:06:55.853Z,88.68
2019-03-01T13:13:02.059Z,87.49
2019-03-01T13:19:06.932Z,87.16
2019-03-01T13:25:12.522Z,87.78
2019-03-01T13:31:17.071Z,89.28
2019-03-01T13:37:21.655Z,89.27
2019-03-01T13:43:27.349Z,88.66
2019-03-01T13:49:32.678Z,88.17
2019-03-01T13:55:37.242Z,88.03
2019-03-01T14:01:42.173Z,88.73
2019-03-01T14:07:48.081Z,90.44
2019-03-01T14:13:52.639Z,91.65
2019-03-01T14:19:57.613Z,93.24
2019-03-01T14:26:02.296Z,93.13
2019-03-01T14:32:07.851Z,92.77
2019-03-01T14:38:12.422Z,92.33
2019-03-01T14:44:17.044Z,92.29
2019-03-01T14:50:24.363Z,91.55
2019-03-01T14:56:34.724Z,90.78
2019-03-01T15:02:56.287Z,91.16
2019-03-01T15:09:01.019Z,91.13
2019-03-01T15:15:10.480Z,90.72
2019-03-01T15:21:15.886Z,90.57
2019-03-01T15:27:20.467Z,89.99
2019-03-01T15:33:25.029Z,90.08
2019-03-01T15:39:29.947Z,91.89
2019-03-01T15:45:36.722Z,90.73
2019-03-01T15:51:41.401Z,92.05
2019-03-01T15:57:45.976Z,92.26
2019-03-01T16:03:50.682Z,93.51
2019-03-01T16:09:58.296Z,93.27
2019-03-01T16:16:02.015Z,93.14
2019-03-01T16:22:06.711Z,94.14
2019-03-01T16:28:11.440Z,94.69
2019-03-01T16:34:17.391Z,93.91
2019-03-01T16:40:22.089Z,92.84
2019-03-01T16:46:28.466Z,90.83
2019-03-01T16:52:33.105Z,91.33
2019-03-01T16:58:37.688Z,91.58
2019-03-01T17:04:42.255Z,89.92
2019-03-01T17:10:46.837Z,90.70
2019-03-01T17:16:51.418Z,90.73
2019-03-01T17:22:55.995Z,89.70
2019-03-01T17:29:03.085Z,90.45
2019-03-01T17:35:10.994Z,91.31
2019-03-01T17:41:15.633Z,91.09
2019-03-01T17:47:20.255Z,90.35
2019-03-01T17:53:24.922Z,92.16
2019-03-01T17:59:30.074Z,92.56
2019-03-01T18:05:37.053Z,93.04
2019-03-01T18:11:44.564Z,93.08
2019-03-01T18:17:47.459Z,93.32
2019-03-01T18:23:52.179Z,92.87
2019-03-01T18:29:56.901Z,92.41
2019-03-01T18:36:01.517Z,91.97
2019-03-01T18:42:06.162Z,91.50
2019-03-01T18:48:10.862Z,90.19
2019-03-01T18:54:15.447Z,88.95
2019-03-01T19:00:35.673Z,87.71
2019-03-01T19:06:39.448Z,88.61
2019-03-01T19:12:44.828Z,88.52
2019-03-01T19:18:51.286Z,85.28
2019-03-01T19:24:56.806Z,86.00
2019-03-01T19:31:01.866Z,85.98
2019-03-01T19:37:06.445Z,84.56
2019-03-01T19:43:11.151Z,82.97
2019-03-01T19:49:15.691Z,80.78
2019-03-01T19:55:20.488Z,81.74
2019-03-01T20:01:25.396Z,81.39
2019-03-01T20:07:30.534Z,79.71
2019-03-01T20:13:35.245Z,79.97
2019-03-01T20:19:39.834Z,79.93
2019-03-01T20:25:47.560Z,79.92
2019-03-01T20:31:50.881Z,79.25
2019-03-01T20:37:55.573Z,77.69
2019-03-01T20:44:01.146Z,77.39
2019-03-01T20:50:11.904Z,78.09
2019-03-01T20:56:16.987Z,77.15
2019-03-01T21:02:21.853Z,76.88
2019-03-01T21:08:29.066Z,78.50
2019-03-01T21:14:33.050Z,78.46
2019-03-01T21:20:37.980Z,78.16
2019-03-01T21:26:42.550Z,79.02
2019-03-01T21:32:50.728Z,80.35
2019-03-01T21:38:53.382Z,80.03
2019-03-01T21:44:58.084Z,80.42
2019-03-01T21:51:03.371Z,80.82
2019-03-01T21:57:07.950Z,80.83
2019-03-01T22:03:12.582Z,81.24
2019-03-01T22:09:20.612Z,81.64
2019-03-01T22:15:29.377Z,82.16
2019-03-01T22:21:34.273Z,83.07
2019-03-01T22:27:38.869Z,82.69
2019-03-01T22:33:43.439Z,82.69
2019-03-01T22:39:51.481Z,82.07
2019-03-01T22:45:55.054Z,81.57
2019-03-01T22:51:59.877Z,80.47
2019-03-01T22:58:05.681Z,80.32
2019-03-01T23:04:11.169Z,80.57
2019-03-01T23:10:18.442Z,80.18
2019-03-01T23:16:22.252Z,79.20
2019-03-01T23:22:26.830Z,79.06
2019-03-01T23:28:31.810Z,78.42
2019-03-01T23:34:38.927Z,79.82
2019-03-01T23:40:42.664Z,77.42
2019-03-01T23:46:47.282Z,76.76
2019-03-01T23:52:54.948Z,78.05
2019-03-01T23:58:59.747Z,74.85
